createdAt,value
2022-09-20T00:01:27.216Z,2.87
2022-09-20T00:03:57.404Z,3.30
2022-09-20T00:06:28.153Z,3.13
2022-09-20T00:08:56.669Z,2.80
2022-09-20T00:11:29.313Z,3.50
2022-09-20T00:13:59.111Z,4.53
2022-09-20T00:16:29.184Z,4.30
2022-09-20T00:18:59.188Z,3.97
2022-09-20T00:21:29.908Z,4.97
2022-09-20T00:23:58.547Z,3.67
2022-09-20T00:26:28.576Z,3.80
2022-09-20T00:28:58.313Z,3.17
2022-09-20T00:31:26.794Z,4.70
2022-09-20T00:34:13.572Z,3.67
2022-09-20T00:36:41.989Z,2.80
2022-09-20T00:39:12.904Z,2.33
2022-09-20T00:41:42.320Z,3.10
2022-09-20T00:44:47.631Z,3.30
2022-09-20T00:47:25.617Z,3.10
2022-09-20T00:49:58.748Z,2.60
2022-09-20T00:52:28.132Z,3.33
2022-09-20T00:54:57.446Z,3.03
2022-09-20T00:57:27.077Z,3.10
2022-09-20T00:59:55.930Z,2.73
2022-09-20T01:02:27.832Z,2.40
2022-09-20T01:04:57.670Z,2.43
2022-09-20T01:07:27.036Z,2.47
2022-09-20T01:09:55.201Z,2.57
2022-09-20T01:12:26.960Z,2.80
2022-09-20T01:14:57.834Z,2.50
2022-09-20T01:17:28.844Z,2.40
2022-09-20T01:20:14.599Z,2.73
2022-09-20T01:22:53.902Z,3.13
2022-09-20T01:25:42.797Z,2.60
2022-09-20T01:28:12.380Z,2.37
2022-09-20T01:30:44.878Z,2.57
2022-09-20T01:33:18.852Z,2.20
2022-09-20T01:35:51.206Z,2.27
2022-09-20T01:38:30.571Z,2.60
2022-09-20T01:41:07.762Z,2.37
2022-09-20T01:43:41.973Z,2.40
2022-09-20T01:46:23.115Z,2.57
2022-09-20T01:48:57.155Z,2.90
2022-09-20T01:51:50.478Z,2.70
2022-09-20T01:54:59.815Z,2.93
2022-09-20T01:57:46.704Z,2.50
2022-09-20T02:00:20.648Z,2.50
2022-09-20T02:03:09.285Z,2.47
2022-09-20T02:06:08.914Z,2.30
2022-09-20T02:09:03.529Z,2.47
2022-09-20T02:11:47.250Z,2.37
2022-09-20T02:14:33.372Z,2.50
2022-09-20T02:17:13.933Z,2.50
2022-09-20T02:20:00.049Z,3.23
2022-09-20T02:22:45.902Z,2.70
2022-09-20T02:25:24.672Z,3.60
2022-09-20T02:28:07.386Z,3.03
2022-09-20T02:30:50.383Z,2.20
2022-09-20T02:33:45.449Z,2.40
2022-09-20T02:36:33.393Z,2.60
2022-09-20T02:39:09.183Z,2.30
2022-09-20T02:42:00.177Z,2.57
2022-09-20T02:44:41.676Z,2.27
2022-09-20T02:47:19.355Z,2.40
2022-09-20T02:50:01.861Z,2.47
2022-09-20T02:52:39.596Z,2.53
2022-09-20T02:55:14.180Z,3.00
2022-09-20T02:57:51.777Z,2.77
2022-09-20T03:00:25.262Z,2.50
2022-09-20T03:03:06.164Z,2.73
2022-09-20T03:05:43.207Z,2.30
2022-09-20T03:08:33.043Z,2.47
2022-09-20T03:11:13.336Z,2.63
2022-09-20T03:14:07.871Z,2.50
2022-09-20T03:16:51.881Z,2.60
2022-09-20T03:19:34.464Z,2.70
2022-09-20T03:22:22.727Z,2.47
2022-09-20T03:25:08.709Z,2.47
2022-09-20T03:27:44.963Z,2.67
2022-09-20T03:30:28.956Z,2.37
2022-09-20T03:33:06.600Z,2.53
2022-09-20T03:35:47.060Z,2.50
2022-09-20T03:38:40.546Z,2.80
2022-09-20T03:41:29.088Z,2.33
2022-09-20T03:44:18.079Z,2.63
2022-09-20T03:46:48.267Z,2.53
2022-09-20T03:49:55.715Z,2.77
2022-09-20T03:52:54.591Z,2.60
2022-09-20T03:55:51.241Z,2.33
2022-09-20T03:58:32.116Z,2.50
2022-09-20T04:01:12.871Z,2.30
2022-09-20T04:03:50.642Z,2.60
2022-09-20T04:06:46.885Z,2.47
2022-09-20T04:09:48.296Z,2.43
2022-09-20T04:12:36.449Z,2.27
2022-09-20T04:15:18.837Z,5.13
2022-09-20T04:17:54.527Z,3.10
2022-09-20T04:20:29.744Z,2.50
2022-09-20T04:23:01.561Z,2.20
2022-09-20T04:25:41.814Z,2.40
2022-09-20T04:28:17.005Z,2.23
2022-09-20T04:30:46.591Z,3.53
2022-09-20T04:33:21.485Z,2.80
2022-09-20T04:36:19.363Z,2.17
2022-09-20T04:38:54.512Z,2.40
2022-09-20T04:41:52.747Z,2.73
2022-09-20T04:44:48.921Z,2.23
2022-09-20T04:47:38.313Z,2.20
2022-09-20T04:50:31.166Z,2.10
2022-09-20T04:53:30.305Z,2.80
2022-09-20T04:56:02.356Z,2.43
2022-09-20T04:58:38.555Z,2.30
2022-09-20T05:01:42.406Z,2.20
2022-09-20T05:04:46.137Z,2.20
2022-09-20T05:07:49.188Z,2.00
2022-09-20T05:10:43.577Z,2.13
2022-09-20T05:13:22.027Z,3.10
2022-09-20T05:15:59.220Z,2.40
2022-09-20T05:19:00.976Z,2.60
2022-09-20T05:21:49.954Z,3.00
2022-09-20T05:24:31.998Z,3.53
2022-09-20T05:27:13.879Z,3.50
2022-09-20T05:29:52.220Z,4.40
2022-09-20T05:32:25.391Z,4.17
2022-09-20T05:35:01.377Z,3.93
2022-09-20T05:37:40.889Z,3.50
2022-09-20T05:40:22.287Z,4.37
2022-09-20T05:42:56.720Z,4.27
2022-09-20T05:45:47.474Z,4.13
2022-09-20T05:48:24.166Z,4.20
2022-09-20T05:51:03.674Z,3.90
2022-09-20T05:54:02.659Z,6.03
2022-09-20T05:56:48.555Z,5.93
2022-09-20T05:59:38.893Z,4.63
2022-09-20T06:02:25.254Z,3.40
2022-09-20T06:05:01.940Z,3.73
2022-09-20T06:07:46.107Z,3.67
2022-09-20T06:10:31.069Z,3.50
2022-09-20T06:13:10.067Z,3.10
2022-09-20T06:15:46.662Z,3.00
2022-09-20T06:18:26.027Z,3.30
2022-09-20T06:21:05.079Z,3.13
2022-09-20T06:23:36.724Z,3.57
2022-09-20T06:26:08.807Z,3.50
2022-09-20T06:28:41.273Z,4.03
2022-09-20T06:31:11.401Z,4.17
2022-09-20T06:33:44.344Z,3.77
2022-09-20T06:36:33.110Z,3.23
2022-09-20T06:39:27.534Z,3.17
2022-09-20T06:41:56.107Z,3.10
2022-09-20T06:44:23.999Z,3.13
2022-09-20T06:46:54.382Z,2.80
2022-09-20T06:49:22.909Z,2.93
2022-09-20T06:51:52.475Z,3.07
2022-09-20T06:54:23.027Z,3.77
2022-09-20T06:56:52.193Z,3.40
2022-09-20T06:59:20.307Z,3.83
2022-09-20T07:01:48.471Z,3.57
2022-09-20T07:04:16.407Z,3.17
2022-09-20T07:06:44.355Z,3.20
2022-09-20T07:09:13.106Z,3.33
2022-09-20T07:11:43.093Z,3.60
2022-09-20T07:14:11.047Z,3.20
2022-09-20T07:16:39.941Z,4.50
2022-09-20T07:19:08.214Z,4.27
2022-09-20T07:21:36.210Z,4.10
2022-09-20T07:24:04.253Z,3.30
2022-09-20T07:26:32.697Z,2.80
2022-09-20T07:29:02.478Z,3.07
2022-09-20T07:31:30.843Z,2.40
2022-09-20T07:33:58.866Z,3.10
2022-09-20T07:36:26.848Z,2.93
2022-09-20T07:38:54.837Z,2.27
2022-09-20T07:41:23.733Z,2.00
2022-09-20T07:43:52.318Z,2.87
2022-09-20T07:46:24.161Z,1.70
2022-09-20T07:48:52.342Z,2.27
2022-09-20T07:51:20.259Z,2.03
2022-09-20T07:53:48.140Z,2.30
2022-09-20T07:56:18.386Z,2.10
2022-09-20T07:58:52.121Z,2.37
2022-09-20T08:01:22.808Z,2.47
2022-09-20T08:03:52.070Z,2.07
2022-09-20T08:06:21.416Z,2.23
2022-09-20T08:08:49.435Z,2.10
2022-09-20T08:11:20.141Z,2.50
2022-09-20T08:14:07.009Z,2.20
2022-09-20T08:16:41.941Z,2.10
2022-09-20T08:19:12.785Z,2.33
2022-09-20T08:21:41.086Z,2.17
2022-09-20T08:24:09.026Z,2.00
2022-09-20T08:26:37.411Z,2.17
2022-09-20T08:29:07.283Z,1.47
2022-09-20T08:31:38.028Z,1.70
2022-09-20T08:34:09.642Z,2.20
2022-09-20T08:36:41.163Z,2.10
2022-09-20T08:42:06.249Z,2.70
2022-09-20T08:44:37.326Z,2.80
2022-09-20T08:47:13.630Z,2.37
2022-09-20T08:49:47.724Z,2.33
2022-09-20T08:52:19.238Z,3.07
2022-09-20T08:54:47.934Z,2.57
2022-09-20T08:57:18.681Z,1.60
2022-09-20T08:59:47.327Z,2.00
2022-09-20T09:02:18.160Z,2.30
2022-09-20T09:04:49.844Z,1.73
2022-09-20T09:07:21.784Z,1.77
2022-09-20T09:09:52.930Z,1.63
2022-09-20T09:12:25.155Z,1.67
2022-09-20T09:14:56.013Z,1.40
2022-09-20T09:17:28.979Z,1.50
2022-09-20T09:20:00.029Z,1.87
2022-09-20T09:22:35.341Z,1.00
2022-09-20T09:25:32.170Z,1.40
2022-09-20T09:28:02.607Z,1.37
2022-09-20T09:30:33.720Z,1.20
2022-09-20T09:33:23.074Z,1.07
2022-09-20T09:36:01.374Z,1.13
2022-09-20T09:38:31.431Z,1.90
2022-09-20T09:41:01.649Z,1.40
2022-09-20T09:43:33.534Z,1.80
2022-09-20T09:46:21.479Z,2.23
2022-09-20T09:49:06.845Z,1.87
2022-09-20T09:51:38.692Z,1.37
2022-09-20T09:54:08.203Z,1.50
2022-09-20T09:56:47.357Z,1.03
2022-09-20T09:59:34.215Z,1.63
2022-09-20T10:02:16.848Z,1.00
2022-09-20T10:04:55.247Z,0.90
2022-09-20T10:07:32.409Z,1.20
2022-09-20T10:10:09.827Z,1.13
2022-09-20T10:12:52.777Z,1.10
2022-09-20T10:15:35.291Z,0.90
2022-09-20T10:18:21.385Z,1.13
2022-09-20T10:21:07.586Z,0.80
2022-09-20T10:24:08.832Z,0.83
2022-09-20T10:26:51.921Z,0.93
2022-09-20T10:29:33.245Z,0.90
2022-09-20T10:32:15.731Z,1.20
2022-09-20T10:35:08.776Z,2.03
2022-09-20T10:37:52.936Z,1.20
2022-09-20T10:40:51.462Z,1.70
2022-09-20T10:43:42.462Z,1.13
2022-09-20T10:46:31.918Z,1.30
2022-09-20T10:49:11.916Z,1.40
2022-09-20T10:51:49.464Z,1.20
2022-09-20T10:54:31.847Z,1.23
2022-09-20T10:57:18.895Z,1.00
2022-09-20T10:59:55.669Z,1.20
2022-09-20T11:02:39.322Z,1.33
2022-09-20T11:05:31.594Z,1.60
2022-09-20T11:08:11.990Z,1.53
2022-09-20T11:10:46.213Z,1.27
2022-09-20T11:13:26.139Z,1.40
2022-09-20T11:16:04.306Z,1.70
2022-09-20T11:18:39.078Z,1.37
2022-09-20T11:21:12.847Z,1.43
2022-09-20T11:23:51.140Z,1.17
2022-09-20T11:26:27.004Z,1.10
2022-09-20T11:29:04.012Z,1.13
2022-09-20T11:31:37.403Z,1.20
2022-09-20T11:34:13.574Z,1.20
2022-09-20T11:36:53.063Z,1.80
2022-09-20T11:39:29.072Z,1.17
2022-09-20T11:42:01.055Z,1.30
2022-09-20T11:44:31.163Z,1.40
2022-09-20T11:47:04.201Z,1.20
2022-09-20T11:49:44.031Z,1.53
2022-09-20T11:52:40.778Z,1.20
2022-09-20T11:55:40.880Z,1.60
2022-09-20T11:58:12.353Z,1.70
2022-09-20T12:00:44.718Z,2.63
2022-09-20T12:03:28.485Z,1.80
2022-09-20T12:06:01.532Z,1.70
2022-09-20T12:08:33.473Z,1.20
2022-09-20T12:11:05.241Z,1.10
2022-09-20T12:13:36.798Z,1.30
2022-09-20T12:16:08.717Z,1.30
2022-09-20T12:18:48.615Z,1.10
2022-09-20T12:21:18.848Z,1.20
2022-09-20T12:24:23.674Z,0.90
2022-09-20T12:26:56.298Z,1.13
2022-09-20T12:29:57.315Z,1.60
2022-09-20T12:32:48.985Z,1.17
2022-09-20T12:35:56.990Z,1.10
2022-09-20T12:38:31.310Z,1.23
2022-09-20T12:41:01.569Z,0.80
2022-09-20T12:43:31.232Z,1.00
2022-09-20T12:46:04.504Z,1.00
2022-09-20T12:48:39.040Z,1.00
2022-09-20T12:51:37.999Z,1.00
2022-09-20T12:54:08.596Z,1.10
2022-09-20T12:56:38.961Z,1.30
2022-09-20T12:59:21.122Z,0.97
2022-09-20T13:01:49.314Z,0.80
2022-09-20T13:05:03.151Z,0.80
2022-09-20T13:07:53.272Z,0.90
2022-09-20T13:10:30.143Z,1.30
2022-09-20T13:13:23.208Z,1.10
2022-09-20T13:15:54.475Z,1.00
2022-09-20T13:18:24.917Z,1.20
2022-09-20T13:20:53.851Z,1.20
2022-09-20T13:23:28.350Z,0.60
2022-09-20T13:25:58.701Z,1.13
2022-09-20T13:28:35.235Z,0.80
2022-09-20T13:31:26.129Z,1.10
2022-09-20T13:33:54.334Z,1.10
2022-09-20T13:36:27.577Z,1.00
2022-09-20T13:38:59.032Z,0.90
2022-09-20T13:41:32.519Z,0.77
2022-09-20T13:44:01.432Z,1.13
2022-09-20T13:46:31.628Z,1.00
2022-09-20T13:49:13.990Z,1.20
2022-09-20T13:51:41.992Z,1.17
2022-09-20T13:54:25.644Z,1.30
2022-09-20T13:56:54.179Z,2.03
2022-09-20T13:59:22.306Z,1.80
2022-09-20T14:01:52.379Z,1.10
2022-09-20T14:04:23.447Z,0.90
2022-09-20T14:06:53.268Z,1.17
2022-09-20T14:09:29.395Z,0.87
2022-09-20T14:11:58.974Z,1.37
2022-09-20T14:14:27.618Z,0.93
2022-09-20T14:16:57.277Z,0.60
2022-09-20T14:19:32.246Z,1.10
2022-09-20T14:22:03.606Z,0.80
2022-09-20T14:24:35.643Z,0.90
2022-09-20T14:27:06.791Z,0.90
2022-09-20T14:29:41.035Z,0.80
2022-09-20T14:32:18.253Z,1.00
2022-09-20T14:34:48.015Z,0.90
2022-09-20T14:37:23.464Z,1.43
2022-09-20T14:39:56.281Z,1.03
2022-09-20T14:42:35.278Z,0.60
2022-09-20T14:45:05.020Z,1.20
2022-09-20T14:47:38.747Z,0.90
2022-09-20T14:50:24.750Z,1.33
2022-09-20T14:53:26.580Z,1.00
2022-09-20T14:56:11.518Z,1.33
2022-09-20T14:59:07.592Z,3.50
2022-09-20T15:01:36.980Z,2.70
2022-09-20T15:04:10.028Z,2.00
2022-09-20T15:06:38.963Z,1.83
2022-09-20T15:09:07.104Z,1.00
2022-09-20T15:11:36.759Z,1.70
2022-09-20T15:14:04.639Z,1.10
2022-09-20T15:16:33.378Z,0.80
2022-09-20T15:19:01.359Z,1.20
2022-09-20T15:21:29.157Z,1.43
2022-09-20T15:23:57.059Z,1.10
2022-09-20T15:26:24.885Z,1.17
2022-09-20T15:28:54.077Z,1.20
2022-09-20T15:31:21.950Z,0.90
2022-09-20T15:33:49.762Z,1.70
2022-09-20T15:36:17.535Z,1.33
2022-09-20T15:38:45.635Z,3.07
2022-09-20T15:41:13.420Z,2.83
2022-09-20T15:43:43.232Z,1.90
2022-09-20T15:46:20.851Z,1.40
2022-09-20T15:48:49.076Z,0.93
2022-09-20T15:51:17.225Z,1.33
2022-09-20T15:53:46.663Z,2.77
2022-09-20T15:56:17.617Z,1.50
2022-09-20T15:58:47.835Z,1.70
2022-09-20T16:01:16.855Z,1.70
2022-09-20T16:03:47.301Z,1.27
2022-09-20T16:06:15.107Z,1.40
2022-09-20T16:08:44.318Z,1.40
2022-09-20T16:11:19.246Z,1.30
2022-09-20T16:13:54.088Z,1.20
2022-09-20T16:16:22.556Z,1.10
2022-09-20T16:19:09.524Z,0.90
2022-09-20T16:21:39.190Z,1.20
2022-09-20T16:24:07.973Z,1.10
2022-09-20T16:26:37.890Z,1.30
2022-09-20T16:29:07.319Z,1.10
2022-09-20T16:31:39.946Z,1.70
2022-09-20T16:34:13.501Z,1.17
2022-09-20T16:36:43.258Z,1.10
2022-09-20T16:39:12.842Z,0.90
2022-09-20T16:41:41.141Z,1.30
2022-09-20T16:44:09.421Z,2.23
2022-09-20T16:46:37.461Z,3.20
2022-09-20T16:49:07.293Z,1.80
2022-09-20T16:51:38.139Z,1.27
2022-09-20T16:54:10.714Z,1.20
2022-09-20T16:56:39.217Z,1.40
2022-09-20T16:59:08.080Z,1.50
2022-09-20T17:01:37.711Z,1.33
2022-09-20T17:04:06.655Z,3.07
2022-09-20T17:06:37.031Z,3.50
2022-09-20T17:09:06.538Z,3.30
2022-09-20T17:11:36.792Z,4.33
2022-09-20T17:14:05.509Z,3.73
2022-09-20T17:16:35.484Z,4.90
2022-09-20T17:19:07.306Z,4.60
2022-09-20T17:21:39.852Z,3.30
2022-09-20T17:24:08.407Z,4.20
2022-09-20T17:26:38.749Z,2.50
2022-09-20T17:29:09.417Z,3.37
2022-09-20T17:31:39.203Z,2.80
2022-09-20T17:34:10.190Z,4.13
2022-09-20T17:36:41.930Z,3.47
2022-09-20T17:39:12.192Z,3.90
2022-09-20T17:41:41.536Z,3.53
2022-09-20T17:44:10.168Z,2.97
2022-09-20T17:46:39.910Z,4.40
2022-09-20T17:49:09.636Z,3.53
2022-09-20T17:51:40.368Z,3.50
2022-09-20T17:54:09.000Z,2.80
2022-09-20T17:56:37.115Z,2.83
2022-09-20T17:59:06.874Z,3.07
2022-09-20T18:01:36.971Z,4.17
2022-09-20T18:04:07.044Z,4.60
2022-09-20T18:06:37.068Z,4.20
2022-09-20T18:09:07.794Z,3.60
2022-09-20T18:11:37.873Z,2.97
2022-09-20T18:14:07.501Z,2.10
2022-09-20T18:16:36.348Z,2.47
2022-09-20T18:19:05.667Z,3.03
2022-09-20T18:21:35.441Z,2.20
2022-09-20T18:24:06.232Z,2.73
2022-09-20T18:26:36.285Z,2.80
2022-09-20T18:29:06.513Z,8.57
2022-09-20T18:31:36.913Z,7.47
2022-09-20T18:34:06.779Z,4.60
2022-09-20T18:36:39.365Z,3.80
2022-09-20T18:39:08.138Z,3.50
2022-09-20T18:41:40.872Z,4.07
2022-09-20T18:44:08.970Z,3.67
2022-09-20T18:46:38.801Z,3.67
2022-09-20T18:49:09.635Z,3.20
2022-09-20T18:51:40.145Z,3.47
2022-09-20T18:54:10.089Z,3.63
2022-09-20T18:56:41.378Z,5.17
2022-09-20T18:59:15.460Z,5.40
2022-09-20T19:01:59.162Z,5.77
2022-09-20T19:04:55.999Z,5.73
2022-09-20T19:07:32.858Z,5.13
2022-09-20T19:10:08.765Z,5.33
2022-09-20T19:12:41.594Z,5.70
2022-09-20T19:15:40.082Z,5.00
2022-09-20T19:18:21.562Z,3.87
2022-09-20T19:20:59.455Z,4.50
2022-09-20T19:23:42.482Z,4.97
2022-09-20T19:26:20.290Z,4.70
2022-09-20T19:28:50.223Z,3.60
2022-09-20T19:31:23.505Z,3.90
2022-09-20T19:33:54.967Z,3.27
2022-09-20T19:36:23.858Z,3.20
2022-09-20T19:39:01.865Z,3.40
2022-09-20T19:41:38.478Z,3.10
2022-09-20T19:44:18.215Z,3.30
2022-09-20T19:47:01.768Z,3.63
2022-09-20T19:49:40.014Z,4.13
2022-09-20T19:52:11.246Z,4.43
2022-09-20T19:54:42.202Z,4.03
2022-09-20T19:57:19.938Z,4.17
2022-09-20T19:59:50.566Z,4.00
2022-09-20T20:02:19.084Z,3.80
2022-09-20T20:04:47.236Z,4.17
2022-09-20T20:07:24.784Z,3.70
2022-09-20T20:09:59.714Z,3.70
2022-09-20T20:12:35.267Z,3.90
2022-09-20T20:15:16.116Z,4.40
2022-09-20T20:17:52.568Z,4.73
2022-09-20T20:20:29.682Z,4.43
2022-09-20T20:23:37.659Z,5.20
2022-09-20T20:26:09.146Z,6.17
2022-09-20T20:28:38.117Z,4.87
2022-09-20T20:31:12.130Z,4.23
2022-09-20T20:33:40.712Z,3.40
2022-09-20T20:36:11.155Z,4.37
2022-09-20T20:38:40.256Z,5.50
2022-09-20T20:41:09.857Z,8.57
2022-09-20T20:43:39.213Z,10.53
2022-09-20T20:46:10.213Z,10.43
2022-09-20T20:48:38.590Z,9.03
2022-09-20T20:51:09.511Z,5.63
2022-09-20T20:53:39.329Z,4.50
2022-09-20T20:56:09.654Z,3.57
2022-09-20T20:58:40.755Z,3.77
2022-09-20T21:01:12.028Z,4.10
2022-09-20T21:03:41.640Z,5.90
2022-09-20T21:06:10.889Z,4.63
2022-09-20T21:08:40.386Z,3.23
2022-09-20T21:11:11.503Z,3.63
2022-09-20T21:13:39.961Z,3.07
2022-09-20T21:16:11.754Z,2.67
2022-09-20T21:18:41.014Z,2.70
2022-09-20T21:21:15.977Z,2.80
2022-09-20T21:23:45.846Z,2.77
2022-09-20T21:26:15.613Z,2.50
2022-09-20T21:28:44.975Z,3.20
2022-09-20T21:31:14.470Z,2.97
2022-09-20T21:33:43.915Z,4.00
2022-09-20T21:36:13.788Z,4.13
2022-09-20T21:38:42.345Z,2.87
2022-09-20T21:41:12.333Z,2.33
2022-09-20T21:43:42.566Z,2.73
2022-09-20T21:46:17.518Z,2.20
2022-09-20T21:48:45.922Z,2.47
2022-09-20T21:51:15.417Z,2.70
2022-09-20T21:53:43.487Z,3.80
2022-09-20T21:56:13.458Z,3.30
2022-09-20T21:58:41.675Z,4.60
2022-09-20T22:01:11.964Z,4.00
2022-09-20T22:03:43.105Z,2.93
2022-09-20T22:06:13.395Z,2.53
2022-09-20T22:08:43.417Z,2.37
2022-09-20T22:11:14.953Z,2.70
2022-09-20T22:13:43.894Z,3.07
2022-09-20T22:16:14.280Z,3.57
2022-09-20T22:18:45.043Z,3.63
2022-09-20T22:21:15.058Z,3.83
2022-09-20T22:23:43.791Z,2.50
2022-09-20T22:26:14.305Z,2.70
2022-09-20T22:28:43.030Z,3.03
2022-09-20T22:31:13.093Z,3.37
2022-09-20T22:33:44.445Z,3.30
2022-09-20T22:36:15.252Z,2.80
2022-09-20T22:38:43.817Z,3.10
2022-09-20T22:41:13.408Z,2.90
2022-09-20T22:43:41.823Z,3.13
2022-09-20T22:46:11.433Z,2.80
2022-09-20T22:48:40.115Z,2.47
2022-09-20T22:51:11.765Z,2.47
2022-09-20T22:53:40.110Z,2.10
2022-09-20T22:56:09.675Z,2.37
2022-09-20T22:58:39.187Z,3.00
2022-09-20T23:01:09.884Z,2.67
2022-09-20T23:03:39.066Z,3.27
2022-09-20T23:06:14.534Z,3.20
2022-09-20T23:08:42.750Z,2.70
2022-09-20T23:11:11.117Z,2.43
2022-09-20T23:13:39.361Z,2.43
2022-09-20T23:16:15.583Z,3.23
2022-09-20T23:18:43.824Z,2.53
2022-09-20T23:21:14.032Z,2.23
2022-09-20T23:23:43.230Z,2.60
2022-09-20T23:26:13.755Z,2.73
2022-09-20T23:28:43.602Z,2.50
2022-09-20T23:31:14.420Z,2.60
2022-09-20T23:33:48.202Z,2.50
2022-09-20T23:36:19.026Z,2.90
2022-09-20T23:38:47.997Z,3.17
2022-09-20T23:41:18.417Z,2.63
2022-09-20T23:43:47.067Z,2.80
2022-09-20T23:46:16.576Z,2.67
2022-09-20T23:48:45.558Z,2.50
2022-09-20T23:51:14.934Z,2.57
2022-09-20T23:53:44.480Z,2.90
2022-09-20T23:56:13.918Z,3.07
2022-09-20T23:58:43.915Z,2.60
